sensor_id;sensor_type;location;lat;lon;timestamp;P1;durP1;ratioP1;P2;durP2;ratioP2
37085;SDS011;23001;45.952;12.676;2023-12-28T00:02:06;37.80;;;27.75;;
37085;SDS011;23001;45.952;12.676;2023-12-28T00:04:32;37.45;;;29.20;;
37085;SDS011;23001;45.952;12.676;2023-12-28T00:06:59;35.55;;;28.33;;
37085;SDS011;23001;45.952;12.676;2023-12-28T00:09:27;36.88;;;29.48;;
37085;SDS011;23001;45.952;12.676;2023-12-28T00:11:52;34.80;;;29.13;;
37085;SDS011;23001;45.952;12.676;2023-12-28T00:14:18;37.47;;;27.73;;
37085;SDS011;23001;45.952;12.676;2023-12-28T00:16:44;35.40;;;29.17;;
37085;SDS011;23001;45.952;12.676;2023-12-28T00:19:10;34.75;;;28.58;;
37085;SDS011;23001;45.952;12.676;2023-12-28T00:21:36;37.60;;;27.50;;
37085;SDS011;23001;45.952;12.676;2023-12-28T00:24:02;36.33;;;26.42;;
37085;SDS011;23001;45.952;12.676;2023-12-28T00:26:28;33.25;;;27.13;;
37085;SDS011;23001;45.952;12.676;2023-12-28T00:28:54;35.50;;;27.05;;
37085;SDS011;23001;45.952;12.676;2023-12-28T00:31:20;32.05;;;25.65;;
37085;SDS011;23001;45.952;12.676;2023-12-28T00:33:46;32.10;;;26.77;;
37085;SDS011;23001;45.952;12.676;2023-12-28T00:36:11;36.08;;;28.30;;
37085;SDS011;23001;45.952;12.676;2023-12-28T00:38:37;35.63;;;27.50;;
37085;SDS011;23001;45.952;12.676;2023-12-28T00:41:03;38.05;;;28.58;;
37085;SDS011;23001;45.952;12.676;2023-12-28T00:43:29;35.75;;;27.38;;
37085;SDS011;23001;45.952;12.676;2023-12-28T00:45:55;34.35;;;26.92;;
37085;SDS011;23001;45.952;12.676;2023-12-28T00:48:20;32.65;;;26.52;;
37085;SDS011;23001;45.952;12.676;2023-12-28T00:50:46;33.35;;;27.45;;
37085;SDS011;23001;45.952;12.676;2023-12-28T00:53:12;32.50;;;26.55;;
37085;SDS011;23001;45.952;12.676;2023-12-28T00:55:38;35.20;;;26.70;;
37085;SDS011;23001;45.952;12.676;2023-12-28T00:58:04;36.20;;;28.23;;
37085;SDS011;23001;45.952;12.676;2023-12-28T01:00:30;34.38;;;26.35;;
37085;SDS011;23001;45.952;12.676;2023-12-28T01:02:55;33.45;;;26.67;;
37085;SDS011;23001;45.952;12.676;2023-12-28T01:05:21;33.55;;;27.63;;
37085;SDS011;23001;45.952;12.676;2023-12-28T01:07:47;35.17;;;25.27;;
37085;SDS011;23001;45.952;12.676;2023-12-28T01:10:13;37.30;;;27.65;;
37085;SDS011;23001;45.952;12.676;2023-12-28T01:12:38;37.90;;;27.60;;
37085;SDS011;23001;45.952;12.676;2023-12-28T01:15:04;32.97;;;25.73;;
37085;SDS011;23001;45.952;12.676;2023-12-28T01:17:30;34.65;;;25.63;;
37085;SDS011;23001;45.952;12.676;2023-12-28T01:19:59;29.90;;;26.02;;
37085;SDS011;23001;45.952;12.676;2023-12-28T01:22:25;31.85;;;24.90;;
37085;SDS011;23001;45.952;12.676;2023-12-28T01:24:50;31.33;;;26.55;;
37085;SDS011;23001;45.952;12.676;2023-12-28T01:27:16;33.38;;;25.98;;
37085;SDS011;23001;45.952;12.676;2023-12-28T01:29:43;30.08;;;25.02;;
37085;SDS011;23001;45.952;12.676;2023-12-28T01:32:08;30.58;;;25.05;;
37085;SDS011;23001;45.952;12.676;2023-12-28T01:34:34;31.83;;;25.75;;
37085;SDS011;23001;45.952;12.676;2023-12-28T01:37:00;30.20;;;24.58;;
37085;SDS011;23001;45.952;12.676;2023-12-28T01:39:26;32.53;;;25.73;;
37085;SDS011;23001;45.952;12.676;2023-12-28T01:41:51;35.47;;;25.83;;
37085;SDS011;23001;45.952;12.676;2023-12-28T01:44:17;31.80;;;25.10;;
37085;SDS011;23001;45.952;12.676;2023-12-28T01:46:43;30.65;;;25.10;;
37085;SDS011;23001;45.952;12.676;2023-12-28T01:49:09;32.63;;;24.58;;
37085;SDS011;23001;45.952;12.676;2023-12-28T01:51:35;33.83;;;25.90;;
37085;SDS011;23001;45.952;12.676;2023-12-28T01:54:01;30.65;;;26.35;;
37085;SDS011;23001;45.952;12.676;2023-12-28T01:56:27;35.75;;;26.48;;
37085;SDS011;23001;45.952;12.676;2023-12-28T01:58:53;33.20;;;26.27;;
37085;SDS011;23001;45.952;12.676;2023-12-28T02:01:19;31.13;;;25.17;;
37085;SDS011;23001;45.952;12.676;2023-12-28T02:03:46;32.92;;;27.17;;
37085;SDS011;23001;45.952;12.676;2023-12-28T02:06:13;32.60;;;25.73;;
37085;SDS011;23001;45.952;12.676;2023-12-28T02:08:42;31.98;;;24.90;;
37085;SDS011;23001;45.952;12.676;2023-12-28T02:11:10;31.20;;;25.00;;
37085;SDS011;23001;45.952;12.676;2023-12-28T02:13:36;31.10;;;24.98;;
37085;SDS011;23001;45.952;12.676;2023-12-28T02:16:03;33.58;;;25.40;;
37085;SDS011;23001;45.952;12.676;2023-12-28T02:18:38;31.38;;;25.95;;
37085;SDS011;23001;45.952;12.676;2023-12-28T02:21:08;31.50;;;25.65;;
37085;SDS011;23001;45.952;12.676;2023-12-28T02:23:34;32.88;;;25.75;;
37085;SDS011;23001;45.952;12.676;2023-12-28T02:26:00;28.30;;;24.85;;
37085;SDS011;23001;45.952;12.676;2023-12-28T02:28:26;32.58;;;25.88;;
37085;SDS011;23001;45.952;12.676;2023-12-28T02:30:51;36.92;;;25.92;;
37085;SDS011;23001;45.952;12.676;2023-12-28T02:33:29;27.55;;;23.98;;
37085;SDS011;23001;45.952;12.676;2023-12-28T02:36:01;31.08;;;24.13;;
37085;SDS011;23001;45.952;12.676;2023-12-28T02:38:30;31.70;;;25.35;;
37085;SDS011;23001;45.952;12.676;2023-12-28T02:41:01;32.53;;;26.08;;
37085;SDS011;23001;45.952;12.676;2023-12-28T02:43:28;31.00;;;24.13;;
37085;SDS011;23001;45.952;12.676;2023-12-28T02:45:54;29.38;;;23.35;;
37085;SDS011;23001;45.952;12.676;2023-12-28T02:48:20;27.92;;;23.40;;
37085;SDS011;23001;45.952;12.676;2023-12-28T02:50:46;31.15;;;24.40;;
37085;SDS011;23001;45.952;12.676;2023-12-28T02:53:12;30.52;;;24.48;;
37085;SDS011;23001;45.952;12.676;2023-12-28T02:55:38;29.88;;;23.30;;
37085;SDS011;23001;45.952;12.676;2023-12-28T02:58:04;29.00;;;23.95;;
37085;SDS011;23001;45.952;12.676;2023-12-28T03:00:30;32.83;;;24.08;;
37085;SDS011;23001;45.952;12.676;2023-12-28T03:02:56;29.77;;;24.30;;
37085;SDS011;23001;45.952;12.676;2023-12-28T03:05:31;33.10;;;25.88;;
37085;SDS011;23001;45.952;12.676;2023-12-28T03:08:00;29.65;;;22.95;;
37085;SDS011;23001;45.952;12.676;2023-12-28T03:10:25;31.83;;;23.55;;
37085;SDS011;23001;45.952;12.676;2023-12-28T03:12:51;28.42;;;24.27;;
37085;SDS011;23001;45.952;12.676;2023-12-28T03:15:17;29.58;;;23.63;;
37085;SDS011;23001;45.952;12.676;2023-12-28T03:17:45;30.98;;;24.35;;
37085;SDS011;23001;45.952;12.676;2023-12-28T03:20:11;30.27;;;23.70;;
37085;SDS011;23001;45.952;12.676;2023-12-28T03:22:37;31.45;;;24.05;;
37085;SDS011;23001;45.952;12.676;2023-12-28T03:25:06;29.30;;;24.30;;
37085;SDS011;23001;45.952;12.676;2023-12-28T03:27:34;28.98;;;24.52;;
37085;SDS011;23001;45.952;12.676;2023-12-28T03:30:00;26.92;;;22.88;;
37085;SDS011;23001;45.952;12.676;2023-12-28T03:32:26;30.58;;;24.27;;
37085;SDS011;23001;45.952;12.676;2023-12-28T03:34:51;28.92;;;24.20;;
37085;SDS011;23001;45.952;12.676;2023-12-28T03:37:17;32.33;;;24.88;;
37085;SDS011;23001;45.952;12.676;2023-12-28T03:39:43;31.67;;;24.40;;
37085;SDS011;23001;45.952;12.676;2023-12-28T03:42:15;28.40;;;25.00;;
37085;SDS011;23001;45.952;12.676;2023-12-28T03:44:43;32.80;;;25.00;;
37085;SDS011;23001;45.952;12.676;2023-12-28T03:47:09;29.13;;;24.02;;
37085;SDS011;23001;45.952;12.676;2023-12-28T03:49:35;30.90;;;24.60;;
37085;SDS011;23001;45.952;12.676;2023-12-28T03:52:00;27.25;;;23.58;;
37085;SDS011;23001;45.952;12.676;2023-12-28T03:54:29;31.92;;;23.65;;
37085;SDS011;23001;45.952;12.676;2023-12-28T03:56:55;28.23;;;23.90;;
37085;SDS011;23001;45.952;12.676;2023-12-28T03:59:25;30.98;;;25.73;;
37085;SDS011;23001;45.952;12.676;2023-12-28T04:01:51;30.95;;;24.23;;
37085;SDS011;23001;45.952;12.676;2023-12-28T04:04:17;30.35;;;24.77;;
37085;SDS011;23001;45.952;12.676;2023-12-28T04:06:45;33.47;;;24.73;;
37085;SDS011;23001;45.952;12.676;2023-12-28T04:09:11;27.95;;;22.70;;
37085;SDS011;23001;45.952;12.676;2023-12-28T04:11:42;31.08;;;23.73;;
37085;SDS011;23001;45.952;12.676;2023-12-28T04:14:08;30.10;;;24.70;;
37085;SDS011;23001;45.952;12.676;2023-12-28T04:16:34;32.78;;;24.85;;
37085;SDS011;23001;45.952;12.676;2023-12-28T04:19:00;33.28;;;24.27;;
37085;SDS011;23001;45.952;12.676;2023-12-28T04:21:25;32.65;;;24.73;;
37085;SDS011;23001;45.952;12.676;2023-12-28T04:23:51;29.95;;;24.45;;
37085;SDS011;23001;45.952;12.676;2023-12-28T04:26:18;33.78;;;23.70;;
37085;SDS011;23001;45.952;12.676;2023-12-28T04:28:45;33.10;;;26.38;;
37085;SDS011;23001;45.952;12.676;2023-12-28T04:31:11;34.15;;;26.17;;
37085;SDS011;23001;45.952;12.676;2023-12-28T04:33:44;29.35;;;25.67;;
37085;SDS011;23001;45.952;12.676;2023-12-28T04:36:10;33.25;;;27.55;;
37085;SDS011;23001;45.952;12.676;2023-12-28T04:38:36;36.80;;;26.00;;
37085;SDS011;23001;45.952;12.676;2023-12-28T04:41:03;33.08;;;26.00;;
37085;SDS011;23001;45.952;12.676;2023-12-28T04:43:29;35.33;;;25.75;;
37085;SDS011;23001;45.952;12.676;2023-12-28T04:45:55;33.90;;;26.67;;
37085;SDS011;23001;45.952;12.676;2023-12-28T04:48:21;34.13;;;26.95;;
37085;SDS011;23001;45.952;12.676;2023-12-28T04:50:49;34.15;;;27.08;;
37085;SDS011;23001;45.952;12.676;2023-12-28T04:53:15;33.22;;;27.05;;
37085;SDS011;23001;45.952;12.676;2023-12-28T04:55:41;36.22;;;26.35;;
37085;SDS011;23001;45.952;12.676;2023-12-28T04:58:07;37.38;;;27.67;;
37085;SDS011;23001;45.952;12.676;2023-12-28T05:00:33;36.45;;;28.75;;
37085;SDS011;23001;45.952;12.676;2023-12-28T05:02:59;36.97;;;28.00;;
37085;SDS011;23001;45.952;12.676;2023-12-28T05:05:30;39.28;;;28.88;;
37085;SDS011;23001;45.952;12.676;2023-12-28T05:07:56;37.47;;;28.50;;
37085;SDS011;23001;45.952;12.676;2023-12-28T05:10:22;40.05;;;31.98;;
37085;SDS011;23001;45.952;12.676;2023-12-28T05:12:48;38.55;;;30.77;;
37085;SDS011;23001;45.952;12.676;2023-12-28T05:15:13;43.10;;;32.05;;
37085;SDS011;23001;45.952;12.676;2023-12-28T05:17:40;37.03;;;29.60;;
37085;SDS011;23001;45.952;12.676;2023-12-28T05:20:06;45.83;;;31.38;;
37085;SDS011;23001;45.952;12.676;2023-12-28T05:22:36;40.63;;;31.73;;
37085;SDS011;23001;45.952;12.676;2023-12-28T05:25:02;40.10;;;32.13;;
37085;SDS011;23001;45.952;12.676;2023-12-28T05:27:28;41.63;;;31.23;;
37085;SDS011;23001;45.952;12.676;2023-12-28T05:29:53;39.03;;;31.83;;
37085;SDS011;23001;45.952;12.676;2023-12-28T05:32:19;40.33;;;31.08;;
37085;SDS011;23001;45.952;12.676;2023-12-28T05:34:48;42.70;;;32.05;;
37085;SDS011;23001;45.952;12.676;2023-12-28T05:37:15;41.78;;;32.35;;
37085;SDS011;23001;45.952;12.676;2023-12-28T05:39:43;41.38;;;32.90;;
37085;SDS011;23001;45.952;12.676;2023-12-28T05:42:09;41.97;;;33.70;;
37085;SDS011;23001;45.952;12.676;2023-12-28T05:44:35;41.20;;;32.85;;
37085;SDS011;23001;45.952;12.676;2023-12-28T05:47:04;38.70;;;32.80;;
37085;SDS011;23001;45.952;12.676;2023-12-28T05:49:29;46.38;;;33.80;;
37085;SDS011;23001;45.952;12.676;2023-12-28T05:51:55;41.63;;;31.33;;
37085;SDS011;23001;45.952;12.676;2023-12-28T05:54:21;43.92;;;33.42;;
37085;SDS011;23001;45.952;12.676;2023-12-28T05:56:47;40.88;;;31.67;;
37085;SDS011;23001;45.952;12.676;2023-12-28T05:59:13;41.55;;;31.80;;
37085;SDS011;23001;45.952;12.676;2023-12-28T06:01:42;44.65;;;33.20;;
37085;SDS011;23001;45.952;12.676;2023-12-28T06:04:15;47.80;;;33.85;;
37085;SDS011;23001;45.952;12.676;2023-12-28T06:06:41;43.75;;;35.20;;
37085;SDS011;23001;45.952;12.676;2023-12-28T06:09:07;47.85;;;35.78;;
37085;SDS011;23001;45.952;12.676;2023-12-28T06:11:33;46.55;;;36.25;;
37085;SDS011;23001;45.952;12.676;2023-12-28T06:14:02;50.22;;;36.72;;
37085;SDS011;23001;45.952;12.676;2023-12-28T06:16:28;46.03;;;36.30;;
37085;SDS011;23001;45.952;12.676;2023-12-28T06:19:07;49.03;;;36.13;;
37085;SDS011;23001;45.952;12.676;2023-12-28T06:21:35;43.35;;;35.75;;
37085;SDS011;23001;45.952;12.676;2023-12-28T06:24:00;43.25;;;35.35;;
37085;SDS011;23001;45.952;12.676;2023-12-28T06:26:26;44.35;;;35.95;;
37085;SDS011;23001;45.952;12.676;2023-12-28T06:28:52;49.35;;;38.13;;
37085;SDS011;23001;45.952;12.676;2023-12-28T06:31:18;47.22;;;35.63;;
37085;SDS011;23001;45.952;12.676;2023-12-28T06:33:44;47.05;;;36.03;;
37085;SDS011;23001;45.952;12.676;2023-12-28T06:36:10;47.15;;;36.72;;
37085;SDS011;23001;45.952;12.676;2023-12-28T06:38:36;46.53;;;37.42;;
37085;SDS011;23001;45.952;12.676;2023-12-28T06:41:09;48.50;;;37.80;;
37085;SDS011;23001;45.952;12.676;2023-12-28T06:43:38;51.08;;;37.13;;
37085;SDS011;23001;45.952;12.676;2023-12-28T06:46:03;49.35;;;37.58;;
37085;SDS011;23001;45.952;12.676;2023-12-28T06:48:29;49.90;;;37.17;;
37085;SDS011;23001;45.952;12.676;2023-12-28T06:50:55;46.05;;;36.83;;
37085;SDS011;23001;45.952;12.676;2023-12-28T06:53:21;53.30;;;39.28;;
37085;SDS011;23001;45.952;12.676;2023-12-28T06:55:47;50.10;;;38.80;;
37085;SDS011;23001;45.952;12.676;2023-12-28T06:58:12;58.00;;;39.80;;
37085;SDS011;23001;45.952;12.676;2023-12-28T07:00:38;56.03;;;37.13;;
37085;SDS011;23001;45.952;12.676;2023-12-28T07:03:06;52.40;;;39.55;;
37085;SDS011;23001;45.952;12.676;2023-12-28T07:05:32;52.85;;;38.92;;
37085;SDS011;23001;45.952;12.676;2023-12-28T07:07:58;51.08;;;38.70;;
37085;SDS011;23001;45.952;12.676;2023-12-28T07:10:24;55.80;;;40.75;;
37085;SDS011;23001;45.952;12.676;2023-12-28T07:12:49;58.20;;;40.25;;
37085;SDS011;23001;45.952;12.676;2023-12-28T07:15:15;52.20;;;39.67;;
37085;SDS011;23001;45.952;12.676;2023-12-28T07:17:41;52.08;;;41.30;;
37085;SDS011;23001;45.952;12.676;2023-12-28T07:20:09;59.25;;;40.70;;
37085;SDS011;23001;45.952;12.676;2023-12-28T07:25:40;50.08;;;39.47;;
37085;SDS011;23001;45.952;12.676;2023-12-28T07:28:06;54.45;;;40.67;;
37085;SDS011;23001;45.952;12.676;2023-12-28T07:30:31;51.13;;;40.40;;
37085;SDS011;23001;45.952;12.676;2023-12-28T07:32:57;49.60;;;39.05;;
37085;SDS011;23001;45.952;12.676;2023-12-28T07:35:23;54.97;;;41.42;;
37085;SDS011;23001;45.952;12.676;2023-12-28T07:37:49;51.28;;;38.47;;
37085;SDS011;23001;45.952;12.676;2023-12-28T07:40:15;48.78;;;38.85;;
37085;SDS011;23001;45.952;12.676;2023-12-28T07:42:40;53.63;;;40.03;;
37085;SDS011;23001;45.952;12.676;2023-12-28T07:45:06;50.58;;;40.10;;
37085;SDS011;23001;45.952;12.676;2023-12-28T07:47:32;51.38;;;39.45;;
37085;SDS011;23001;45.952;12.676;2023-12-28T07:49:58;56.55;;;40.90;;
37085;SDS011;23001;45.952;12.676;2023-12-28T07:52:25;54.38;;;40.30;;
37085;SDS011;23001;45.952;12.676;2023-12-28T07:54:51;54.08;;;40.03;;
37085;SDS011;23001;45.952;12.676;2023-12-28T07:57:19;53.10;;;43.17;;
37085;SDS011;23001;45.952;12.676;2023-12-28T07:59:48;56.58;;;40.50;;
37085;SDS011;23001;45.952;12.676;2023-12-28T08:02:14;56.17;;;42.92;;
37085;SDS011;23001;45.952;12.676;2023-12-28T08:04:39;52.78;;;41.33;;
37085;SDS011;23001;45.952;12.676;2023-12-28T08:07:05;57.22;;;41.55;;
37085;SDS011;23001;45.952;12.676;2023-12-28T08:09:32;54.88;;;41.17;;
37085;SDS011;23001;45.952;12.676;2023-12-28T08:11:57;54.35;;;40.33;;
37085;SDS011;23001;45.952;12.676;2023-12-28T08:14:23;57.85;;;42.10;;
37085;SDS011;23001;45.952;12.676;2023-12-28T08:16:56;55.85;;;41.80;;
37085;SDS011;23001;45.952;12.676;2023-12-28T08:19:22;51.75;;;39.88;;
37085;SDS011;23001;45.952;12.676;2023-12-28T08:21:51;48.97;;;38.45;;
37085;SDS011;23001;45.952;12.676;2023-12-28T08:24:20;53.08;;;39.58;;
37085;SDS011;23001;45.952;12.676;2023-12-28T08:35:03;56.78;;;39.65;;
37085;SDS011;23001;45.952;12.676;2023-12-28T08:38:09;53.45;;;39.28;;
37085;SDS011;23001;45.952;12.676;2023-12-28T08:40:45;54.40;;;39.28;;
37085;SDS011;23001;45.952;12.676;2023-12-28T08:43:37;64.15;;;41.33;;
37085;SDS011;23001;45.952;12.676;2023-12-28T08:46:02;50.20;;;39.42;;
37085;SDS011;23001;45.952;12.676;2023-12-28T08:48:28;54.55;;;41.80;;
37085;SDS011;23001;45.952;12.676;2023-12-28T08:50:54;51.67;;;38.50;;
37085;SDS011;23001;45.952;12.676;2023-12-28T08:53:19;48.78;;;39.55;;
37085;SDS011;23001;45.952;12.676;2023-12-28T08:55:45;58.80;;;41.33;;
37085;SDS011;23001;45.952;12.676;2023-12-28T08:58:11;52.33;;;39.85;;
37085;SDS011;23001;45.952;12.676;2023-12-28T09:00:37;52.50;;;38.88;;
37085;SDS011;23001;45.952;12.676;2023-12-28T09:03:03;51.63;;;38.70;;
37085;SDS011;23001;45.952;12.676;2023-12-28T09:05:29;53.65;;;40.33;;
37085;SDS011;23001;45.952;12.676;2023-12-28T09:07:54;51.20;;;38.50;;
37085;SDS011;23001;45.952;12.676;2023-12-28T09:10:20;48.78;;;36.30;;
37085;SDS011;23001;45.952;12.676;2023-12-28T09:12:46;50.65;;;37.97;;
37085;SDS011;23001;45.952;12.676;2023-12-28T09:15:15;54.05;;;37.75;;
37085;SDS011;23001;45.952;12.676;2023-12-28T09:17:41;43.55;;;35.30;;
37085;SDS011;23001;45.952;12.676;2023-12-28T09:20:16;49.97;;;36.83;;
37085;SDS011;23001;45.952;12.676;2023-12-28T09:22:52;50.30;;;37.28;;
37085;SDS011;23001;45.952;12.676;2023-12-28T09:25:24;46.08;;;34.78;;
37085;SDS011;23001;45.952;12.676;2023-12-28T09:27:49;49.78;;;36.88;;
37085;SDS011;23001;45.952;12.676;2023-12-28T09:30:15;50.13;;;36.22;;
37085;SDS011;23001;45.952;12.676;2023-12-28T09:32:44;52.60;;;35.65;;
37085;SDS011;23001;45.952;12.676;2023-12-28T09:35:18;50.25;;;37.15;;
37085;SDS011;23001;45.952;12.676;2023-12-28T09:37:44;48.70;;;36.58;;
37085;SDS011;23001;45.952;12.676;2023-12-28T09:40:10;48.67;;;36.92;;
37085;SDS011;23001;45.952;12.676;2023-12-28T09:43:01;50.92;;;36.55;;
37085;SDS011;23001;45.952;12.676;2023-12-28T09:45:40;50.40;;;36.88;;
37085;SDS011;23001;45.952;12.676;2023-12-28T09:48:06;47.83;;;37.97;;
37085;SDS011;23001;45.952;12.676;2023-12-28T09:50:32;48.90;;;35.60;;
37085;SDS011;23001;45.952;12.676;2023-12-28T09:52:58;43.65;;;34.75;;
37085;SDS011;23001;45.952;12.676;2023-12-28T09:55:23;46.03;;;35.53;;
37085;SDS011;23001;45.952;12.676;2023-12-28T09:57:52;43.70;;;34.72;;
37085;SDS011;23001;45.952;12.676;2023-12-28T10:00:19;47.20;;;34.63;;
37085;SDS011;23001;45.952;12.676;2023-12-28T10:02:45;48.30;;;35.28;;
37085;SDS011;23001;45.952;12.676;2023-12-28T10:05:14;44.38;;;33.83;;
37085;SDS011;23001;45.952;12.676;2023-12-28T10:07:45;43.97;;;35.05;;
37085;SDS011;23001;45.952;12.676;2023-12-28T10:10:12;45.13;;;33.75;;
37085;SDS011;23001;45.952;12.676;2023-12-28T10:12:39;45.92;;;34.22;;
37085;SDS011;23001;45.952;12.676;2023-12-28T10:15:08;38.78;;;31.63;;
37085;SDS011;23001;45.952;12.676;2023-12-28T10:17:35;45.13;;;33.13;;
37085;SDS011;23001;45.952;12.676;2023-12-28T10:20:03;40.05;;;32.15;;
37085;SDS011;23001;45.952;12.676;2023-12-28T10:22:33;48.22;;;34.88;;
37085;SDS011;23001;45.952;12.676;2023-12-28T10:24:59;47.72;;;34.13;;
37085;SDS011;23001;45.952;12.676;2023-12-28T10:27:27;41.45;;;33.60;;
37085;SDS011;23001;45.952;12.676;2023-12-28T10:29:53;44.03;;;34.15;;
37085;SDS011;23001;45.952;12.676;2023-12-28T10:32:22;45.95;;;34.72;;
37085;SDS011;23001;45.952;12.676;2023-12-28T10:34:52;48.70;;;35.13;;
37085;SDS011;23001;45.952;12.676;2023-12-28T10:37:19;46.53;;;33.13;;
37085;SDS011;23001;45.952;12.676;2023-12-28T10:39:47;39.72;;;31.55;;
37085;SDS011;23001;45.952;12.676;2023-12-28T10:42:16;43.95;;;33.58;;
37085;SDS011;23001;45.952;12.676;2023-12-28T10:45:10;45.80;;;33.53;;
37085;SDS011;23001;45.952;12.676;2023-12-28T10:47:42;49.13;;;33.70;;
37085;SDS011;23001;45.952;12.676;2023-12-28T10:50:10;41.45;;;31.83;;
37085;SDS011;23001;45.952;12.676;2023-12-28T10:52:37;43.28;;;33.13;;
37085;SDS011;23001;45.952;12.676;2023-12-28T10:55:19;42.10;;;33.53;;
37085;SDS011;23001;45.952;12.676;2023-12-28T10:58:08;45.63;;;33.88;;
37085;SDS011;23001;45.952;12.676;2023-12-28T11:00:55;42.05;;;31.73;;
37085;SDS011;23001;45.952;12.676;2023-12-28T11:03:27;43.13;;;31.55;;
37085;SDS011;23001;45.952;12.676;2023-12-28T11:05:59;39.43;;;31.30;;
37085;SDS011;23001;45.952;12.676;2023-12-28T11:08:28;39.88;;;30.38;;
37085;SDS011;23001;45.952;12.676;2023-12-28T11:10:55;38.45;;;31.70;;
37085;SDS011;23001;45.952;12.676;2023-12-28T11:13:22;40.72;;;30.42;;
37085;SDS011;23001;45.952;12.676;2023-12-28T11:15:48;39.10;;;30.08;;
37085;SDS011;23001;45.952;12.676;2023-12-28T11:18:16;42.20;;;31.00;;
37085;SDS011;23001;45.952;12.676;2023-12-28T11:20:45;40.65;;;32.03;;
37085;SDS011;23001;45.952;12.676;2023-12-28T11:23:12;38.95;;;30.10;;
37085;SDS011;23001;45.952;12.676;2023-12-28T11:25:38;39.03;;;29.55;;
37085;SDS011;23001;45.952;12.676;2023-12-28T11:28:11;38.70;;;31.10;;
37085;SDS011;23001;45.952;12.676;2023-12-28T11:30:37;38.08;;;29.67;;
37085;SDS011;23001;45.952;12.676;2023-12-28T11:33:06;41.40;;;30.88;;
37085;SDS011;23001;45.952;12.676;2023-12-28T11:35:38;35.60;;;30.80;;
37085;SDS011;23001;45.952;12.676;2023-12-28T11:38:04;37.25;;;29.15;;
37085;SDS011;23001;45.952;12.676;2023-12-28T11:40:45;37.58;;;29.67;;
37085;SDS011;23001;45.952;12.676;2023-12-28T11:43:18;35.60;;;28.25;;
37085;SDS011;23001;45.952;12.676;2023-12-28T11:45:55;38.20;;;30.70;;
37085;SDS011;23001;45.952;12.676;2023-12-28T11:48:22;39.97;;;30.17;;
37085;SDS011;23001;45.952;12.676;2023-12-28T11:50:49;40.17;;;29.42;;
37085;SDS011;23001;45.952;12.676;2023-12-28T11:53:15;46.05;;;32.08;;
37085;SDS011;23001;45.952;12.676;2023-12-28T11:55:45;40.60;;;29.73;;
37085;SDS011;23001;45.952;12.676;2023-12-28T11:58:13;36.15;;;30.40;;
37085;SDS011;23001;45.952;12.676;2023-12-28T12:00:40;40.28;;;31.70;;
37085;SDS011;23001;45.952;12.676;2023-12-28T12:03:06;40.55;;;29.95;;
37085;SDS011;23001;45.952;12.676;2023-12-28T12:05:36;40.17;;;29.80;;
37085;SDS011;23001;45.952;12.676;2023-12-28T12:08:01;47.65;;;32.28;;
37085;SDS011;23001;45.952;12.676;2023-12-28T12:10:28;41.78;;;30.70;;
37085;SDS011;23001;45.952;12.676;2023-12-28T12:12:54;42.13;;;31.25;;
37085;SDS011;23001;45.952;12.676;2023-12-28T12:15:19;39.00;;;30.92;;
37085;SDS011;23001;45.952;12.676;2023-12-28T12:17:45;42.40;;;30.83;;
37085;SDS011;23001;45.952;12.676;2023-12-28T12:20:12;41.38;;;29.83;;
37085;SDS011;23001;45.952;12.676;2023-12-28T12:22:40;39.67;;;31.15;;
37085;SDS011;23001;45.952;12.676;2023-12-28T12:25:05;39.78;;;30.52;;
37085;SDS011;23001;45.952;12.676;2023-12-28T12:27:36;39.70;;;30.38;;
37085;SDS011;23001;45.952;12.676;2023-12-28T12:30:03;42.63;;;29.92;;
37085;SDS011;23001;45.952;12.676;2023-12-28T12:32:29;39.97;;;30.15;;
37085;SDS011;23001;45.952;12.676;2023-12-28T12:34:56;36.83;;;29.40;;
37085;SDS011;23001;45.952;12.676;2023-12-28T12:37:23;41.08;;;30.52;;
37085;SDS011;23001;45.952;12.676;2023-12-28T12:39:49;36.53;;;29.02;;
37085;SDS011;23001;45.952;12.676;2023-12-28T12:42:15;40.35;;;29.33;;
37085;SDS011;23001;45.952;12.676;2023-12-28T12:44:41;36.38;;;27.75;;
37085;SDS011;23001;45.952;12.676;2023-12-28T12:47:07;35.05;;;27.60;;
37085;SDS011;23001;45.952;12.676;2023-12-28T12:49:33;33.88;;;27.55;;
37085;SDS011;23001;45.952;12.676;2023-12-28T12:52:00;38.03;;;27.77;;
37085;SDS011;23001;45.952;12.676;2023-12-28T12:54:26;36.13;;;26.92;;
37085;SDS011;23001;45.952;12.676;2023-12-28T12:56:52;42.38;;;29.20;;
37085;SDS011;23001;45.952;12.676;2023-12-28T12:59:18;35.88;;;27.60;;
37085;SDS011;23001;45.952;12.676;2023-12-28T13:01:45;35.92;;;28.98;;
37085;SDS011;23001;45.952;12.676;2023-12-28T13:04:16;34.83;;;27.48;;
37085;SDS011;23001;45.952;12.676;2023-12-28T13:09:27;35.90;;;27.55;;
37085;SDS011;23001;45.952;12.676;2023-12-28T13:11:53;34.10;;;25.60;;
37085;SDS011;23001;45.952;12.676;2023-12-28T13:14:18;29.65;;;24.70;;
37085;SDS011;23001;45.952;12.676;2023-12-28T13:16:45;34.38;;;25.10;;
37085;SDS011;23001;45.952;12.676;2023-12-28T13:19:13;29.15;;;24.08;;
37085;SDS011;23001;45.952;12.676;2023-12-28T13:21:42;30.48;;;24.42;;
37085;SDS011;23001;45.952;12.676;2023-12-28T13:24:11;31.30;;;23.27;;
37085;SDS011;23001;45.952;12.676;2023-12-28T13:26:37;29.83;;;23.08;;
37085;SDS011;23001;45.952;12.676;2023-12-28T13:29:02;30.42;;;22.80;;
37085;SDS011;23001;45.952;12.676;2023-12-28T13:31:28;31.13;;;23.27;;
37085;SDS011;23001;45.952;12.676;2023-12-28T13:33:54;32.13;;;23.80;;
37085;SDS011;23001;45.952;12.676;2023-12-28T13:36:20;33.08;;;23.33;;
37085;SDS011;23001;45.952;12.676;2023-12-28T13:38:45;29.17;;;22.75;;
37085;SDS011;23001;45.952;12.676;2023-12-28T13:41:11;28.73;;;22.58;;
37085;SDS011;23001;45.952;12.676;2023-12-28T13:43:37;33.03;;;22.88;;
37085;SDS011;23001;45.952;12.676;2023-12-28T13:46:03;30.30;;;23.30;;
37085;SDS011;23001;45.952;12.676;2023-12-28T13:48:31;34.40;;;24.15;;
37085;SDS011;23001;45.952;12.676;2023-12-28T13:50:57;29.95;;;24.52;;
37085;SDS011;23001;45.952;12.676;2023-12-28T13:53:23;25.23;;;22.08;;
37085;SDS011;23001;45.952;12.676;2023-12-28T13:55:49;26.83;;;20.77;;
37085;SDS011;23001;45.952;12.676;2023-12-28T13:58:14;30.33;;;22.42;;
37085;SDS011;23001;45.952;12.676;2023-12-28T14:00:40;30.83;;;22.70;;
37085;SDS011;23001;45.952;12.676;2023-12-28T14:03:06;25.95;;;20.98;;
37085;SDS011;23001;45.952;12.676;2023-12-28T14:05:32;27.15;;;20.83;;
37085;SDS011;23001;45.952;12.676;2023-12-28T14:07:58;26.25;;;20.70;;
37085;SDS011;23001;45.952;12.676;2023-12-28T14:10:23;28.40;;;20.67;;
37085;SDS011;23001;45.952;12.676;2023-12-28T14:12:49;28.77;;;21.73;;
37085;SDS011;23001;45.952;12.676;2023-12-28T14:15:15;27.30;;;21.10;;
37085;SDS011;23001;45.952;12.676;2023-12-28T14:17:41;28.13;;;20.52;;
37085;SDS011;23001;45.952;12.676;2023-12-28T14:20:07;28.55;;;21.50;;
37085;SDS011;23001;45.952;12.676;2023-12-28T14:22:36;26.33;;;20.02;;
37085;SDS011;23001;45.952;12.676;2023-12-28T14:25:03;26.45;;;20.67;;